Portada
METAR-TAF:

METAR-TAF

Aeroports :

Kochi, Índia

latitud: 10-09-07N, longitud: 76-24-07E, altitud: 9 m

Observació

L'informe es va fer fa 26 minuts, a les 14:30 UTC
Vent 3 kt del Oest/Nord-Oest
Temperatura 27°C
Humitat 84%
Pressió 1009 hPa
Visibilitat: 4000 m
Escasses núvols a una alçada de 1500 ft
Cel ennuvolat a una alçada de 8000 ft
calitja

METAR: VOCI 181430Z 29003KT 4000 HZ FEW015 BKN080 27/24 Q1009 NOSIG

Hora: 20:26 (14:56 UTC)

Pronòstic

L'informe es va fer fa 56 minuts, a les 14:00 UTC
Pronòstic vàlid del 18 a les 15 UTC al 18 a les 24 UTC
Vent 10 kt del Oest/Nord-Oest
Visibilitat: 4000 m
Escasses núvols a una alçada de 1500 ft
Cel ennuvolat a una alçada de 8000 ft
boirina, calitja
Temporalment
l' 18 a les 23 UTC al 18 a les 24 UTC
Visibilitat: 2000 m
boirina

TAF: VOCI 181400Z 1815/1824 30010KT 4000 BR HZ FEW015 BKN080 TEMPO 1823/1824 VRB03 2000 BR

Observacions i pronòstics meteorològics de més de 4000 aeroports (METAR i TAF).

Les estacions disponibles són els punts grocs i vermells al mapa.

Posi el ratolí al punt desitjat per veure el nom de l'estació.

Feu clic per veure les observacions i els pronòstics meteorològics.

Per canviar el mapa: feu clic els botons verds amb una creu de color negre per apropar; al botó verd amb un guió per allunyar la imatge; o en les fletxes verdes per a mapes adjacents.


METAR-TAF: